createdAt,value
2018-06-30T00:02:00.038Z,5.90
2018-06-30T00:04:28.370Z,4.50
2018-06-30T00:06:56.774Z,5.30
2018-06-30T00:09:25.090Z,8.20
2018-06-30T00:11:53.348Z,4.40
2018-06-30T00:14:21.713Z,12.43
2018-06-30T00:16:50.087Z,5.23
2018-06-30T00:19:18.752Z,6.73
2018-06-30T00:21:47.054Z,4.83
2018-06-30T00:24:15.340Z,7.90
2018-06-30T00:26:43.682Z,5.00
2018-06-30T00:29:12.065Z,8.63
2018-06-30T00:31:40.408Z,6.10
2018-06-30T00:34:09.087Z,8.20
2018-06-30T00:36:37.247Z,10.20
2018-06-30T00:39:09.068Z,11.60
2018-06-30T00:41:37.294Z,8.13
2018-06-30T00:44:05.594Z,12.60
2018-06-30T00:46:34.075Z,13.10
2018-06-30T00:49:02.592Z,15.10
2018-06-30T00:51:30.916Z,11.20
2018-06-30T00:53:59.227Z,16.60
2018-06-30T00:56:27.571Z,18.03
2018-06-30T00:58:56.022Z,13.37
2018-06-30T01:01:24.255Z,9.90
2018-06-30T01:03:52.527Z,10.70
2018-06-30T01:06:20.800Z,12.67
2018-06-30T01:08:49.110Z,17.70
2018-06-30T01:11:17.329Z,11.40
2018-06-30T01:13:45.627Z,18.07
2018-06-30T01:16:13.907Z,9.47
2018-06-30T01:18:42.385Z,11.40
2018-06-30T01:21:10.746Z,16.43
2018-06-30T01:23:39.075Z,15.67
2018-06-30T01:26:07.503Z,16.67
2018-06-30T01:28:35.782Z,14.90
2018-06-30T01:31:04.096Z,20.53
2018-06-30T01:33:32.440Z,10.50
2018-06-30T01:36:02.023Z,10.87
2018-06-30T01:38:30.315Z,16.33
2018-06-30T01:40:58.582Z,13.10
2018-06-30T01:43:26.840Z,15.40
2018-06-30T01:45:55.369Z,16.90
2018-06-30T01:48:23.706Z,26.83
2018-06-30T01:50:51.953Z,35.87
2018-06-30T01:53:20.230Z,18.23
2018-06-30T01:55:48.475Z,14.47
2018-06-30T01:58:17.450Z,16.67
2018-06-30T02:00:45.748Z,20.47
2018-06-30T02:03:13.981Z,21.13
2018-06-30T02:05:42.291Z,18.47
2018-06-30T02:08:10.558Z,26.53
2018-06-30T02:10:38.804Z,17.20
2018-06-30T02:13:07.081Z,15.90
2018-06-30T02:15:35.357Z,17.63
2018-06-30T02:18:03.701Z,12.83
2018-06-30T02:20:31.982Z,16.20
2018-06-30T02:23:00.681Z,14.33
2018-06-30T02:25:28.949Z,17.03
2018-06-30T02:27:57.215Z,18.00
2018-06-30T02:30:25.565Z,18.80
2018-06-30T02:32:53.786Z,10.50
2018-06-30T02:35:22.131Z,12.90
2018-06-30T02:37:50.450Z,8.20
2018-06-30T02:40:18.708Z,15.70
2018-06-30T02:42:46.969Z,7.00
2018-06-30T02:45:15.005Z,9.80
2018-06-30T02:47:43.300Z,8.93
2018-06-30T02:50:11.691Z,12.23
2018-06-30T02:52:39.984Z,11.80
2018-06-30T02:55:08.296Z,12.73
2018-06-30T02:57:36.812Z,8.60
2018-06-30T03:00:05.512Z,8.53
2018-06-30T03:02:33.795Z,8.70
2018-06-30T03:05:02.094Z,10.03
2018-06-30T03:07:30.120Z,7.60
2018-06-30T03:09:58.356Z,8.90
2018-06-30T03:12:27.038Z,13.37
2018-06-30T03:14:55.542Z,9.90
2018-06-30T03:17:23.814Z,11.83
2018-06-30T03:19:52.124Z,8.93
2018-06-30T03:22:20.371Z,8.70
2018-06-30T03:24:48.740Z,13.10
2018-06-30T03:27:16.982Z,9.73
2018-06-30T03:29:45.235Z,8.10
2018-06-30T03:32:13.545Z,9.97
2018-06-30T03:34:41.806Z,6.43
2018-06-30T03:37:10.152Z,7.53
2018-06-30T03:39:39.070Z,8.60
2018-06-30T03:42:07.359Z,5.43
2018-06-30T03:44:35.630Z,7.90
2018-06-30T03:47:04.090Z,12.80
2018-06-30T03:49:32.423Z,9.30
2018-06-30T03:52:01.615Z,9.40
2018-06-30T03:54:30.540Z,6.87
2018-06-30T03:56:58.900Z,7.50
2018-06-30T03:59:27.218Z,12.53
2018-06-30T04:01:55.550Z,7.13
2018-06-30T04:04:23.884Z,6.83
2018-06-30T04:06:52.163Z,8.47
2018-06-30T04:09:20.431Z,8.63
2018-06-30T04:11:48.701Z,11.80
2018-06-30T04:14:17.059Z,6.47
2018-06-30T04:16:45.379Z,11.90
2018-06-30T04:19:16.800Z,5.77
2018-06-30T04:21:46.225Z,6.60
2018-06-30T04:24:14.542Z,5.37
2018-06-30T04:26:43.628Z,4.97
2018-06-30T04:29:12.678Z,10.67
2018-06-30T04:31:41.012Z,5.57
2018-06-30T04:34:09.467Z,6.67
2018-06-30T04:36:37.755Z,5.63
2018-06-30T04:39:08.114Z,8.37
2018-06-30T04:41:36.393Z,5.40
2018-06-30T04:44:05.427Z,6.63
2018-06-30T04:46:33.668Z,6.00
2018-06-30T04:49:01.886Z,6.00
2018-06-30T04:51:30.228Z,6.20
2018-06-30T04:53:58.588Z,5.53
2018-06-30T04:56:27.819Z,5.60
2018-06-30T04:58:56.148Z,6.00
2018-06-30T05:01:24.400Z,10.57
2018-06-30T05:03:52.860Z,7.03
2018-06-30T05:06:21.167Z,7.60
2018-06-30T05:08:49.544Z,7.70
2018-06-30T05:11:17.901Z,8.10
2018-06-30T05:13:46.192Z,9.07
2018-06-30T05:16:14.598Z,10.00
2018-06-30T05:18:42.930Z,19.53
2018-06-30T05:21:11.140Z,13.73
2018-06-30T05:23:39.380Z,10.87
2018-06-30T05:26:07.698Z,8.40
2018-06-30T05:28:36.008Z,9.60
2018-06-30T05:31:04.262Z,6.37
2018-06-30T05:33:32.605Z,8.37
2018-06-30T05:36:00.868Z,10.90
2018-06-30T05:38:29.727Z,9.27
2018-06-30T05:40:58.160Z,7.93
2018-06-30T05:43:26.441Z,8.87
2018-06-30T05:45:54.685Z,11.80
2018-06-30T05:48:22.676Z,8.50
2018-06-30T05:50:50.942Z,9.97
2018-06-30T05:53:19.311Z,6.10
2018-06-30T05:55:47.535Z,6.27
2018-06-30T05:58:15.858Z,5.50
2018-06-30T06:00:44.452Z,8.60
2018-06-30T06:03:12.512Z,5.90
2018-06-30T06:05:40.812Z,6.43
2018-06-30T06:08:09.085Z,4.90
2018-06-30T06:10:37.412Z,5.60
2018-06-30T06:13:05.749Z,4.97
2018-06-30T06:15:34.767Z,5.20
2018-06-30T06:18:03.124Z,7.07
2018-06-30T06:20:31.390Z,5.13
2018-06-30T06:22:59.612Z,5.43
2018-06-30T06:25:27.903Z,6.00
2018-06-30T06:27:56.211Z,5.23
2018-06-30T06:30:24.530Z,8.03
2018-06-30T06:32:52.868Z,11.13
2018-06-30T06:35:21.099Z,4.90
2018-06-30T06:37:49.457Z,7.57
2018-06-30T06:40:17.707Z,4.90
2018-06-30T06:42:46.044Z,8.23
2018-06-30T06:45:14.349Z,5.17
2018-06-30T06:47:42.639Z,9.73
2018-06-30T06:50:10.628Z,6.27
2018-06-30T06:52:39.108Z,13.77
2018-06-30T06:55:07.509Z,5.50
2018-06-30T06:57:36.998Z,9.23
2018-06-30T07:00:06.005Z,6.93
2018-06-30T07:02:34.272Z,6.13
2018-06-30T07:05:02.554Z,7.73
2018-06-30T07:07:30.843Z,5.13
2018-06-30T07:09:59.095Z,5.40
2018-06-30T07:12:27.389Z,5.83
2018-06-30T07:14:55.741Z,8.33
2018-06-30T07:17:24.000Z,11.30
2018-06-30T07:19:52.392Z,5.43
2018-06-30T07:22:20.645Z,8.67
2018-06-30T07:24:49.406Z,7.17
2018-06-30T07:27:17.694Z,5.23
2018-06-30T07:29:46.176Z,6.47
2018-06-30T07:32:14.554Z,10.17
2018-06-30T07:34:43.852Z,6.37
2018-06-30T07:37:11.887Z,5.30
2018-06-30T07:39:40.179Z,6.10
2018-06-30T07:42:08.407Z,8.70
2018-06-30T07:44:36.810Z,6.37
2018-06-30T07:47:05.271Z,7.30
2018-06-30T07:49:33.552Z,6.33
2018-06-30T07:52:01.971Z,6.07
2018-06-30T07:54:30.249Z,6.57
2018-06-30T07:56:58.780Z,6.87
2018-06-30T07:59:27.181Z,7.03
2018-06-30T08:01:55.417Z,8.60
2018-06-30T08:04:23.953Z,5.60
2018-06-30T08:06:52.209Z,12.33
2018-06-30T08:09:20.495Z,7.80
2018-06-30T08:11:49.866Z,6.57
2018-06-30T08:14:18.167Z,5.40
2018-06-30T08:16:46.479Z,7.77
2018-06-30T08:19:14.749Z,6.33
2018-06-30T08:21:43.074Z,8.40
2018-06-30T08:24:11.383Z,9.10
2018-06-30T08:26:39.621Z,6.33
2018-06-30T08:29:07.893Z,7.50
2018-06-30T08:31:36.268Z,7.57
2018-06-30T08:34:04.593Z,8.67
2018-06-30T08:36:32.861Z,9.73
2018-06-30T08:39:01.245Z,6.63
2018-06-30T08:41:29.558Z,7.10
2018-06-30T08:43:57.783Z,5.60
2018-06-30T08:46:26.103Z,7.30
2018-06-30T08:48:54.394Z,9.10
2018-06-30T08:51:22.677Z,5.83
2018-06-30T08:53:53.401Z,4.90
2018-06-30T08:56:21.742Z,7.60
2018-06-30T08:58:50.096Z,9.10
2018-06-30T09:01:18.350Z,6.23
2018-06-30T09:03:46.702Z,7.80
2018-06-30T09:06:15.052Z,7.50
2018-06-30T09:08:43.405Z,6.87
2018-06-30T09:11:11.759Z,7.30
2018-06-30T09:13:40.100Z,7.67
2018-06-30T09:16:08.184Z,5.00
2018-06-30T09:18:36.385Z,7.83
2018-06-30T09:21:04.982Z,10.43
2018-06-30T09:23:33.461Z,5.73
2018-06-30T09:26:01.756Z,8.73
2018-06-30T09:28:30.081Z,7.27
2018-06-30T09:30:59.298Z,5.83
2018-06-30T09:33:27.622Z,4.53
2018-06-30T09:35:56.008Z,7.00
2018-06-30T09:38:24.298Z,9.00
2018-06-30T09:40:52.593Z,5.23
2018-06-30T09:43:20.856Z,8.83
2018-06-30T09:45:49.125Z,5.87
2018-06-30T09:48:17.490Z,4.60
2018-06-30T09:50:45.768Z,5.70
2018-06-30T09:53:13.985Z,5.50
2018-06-30T09:55:42.280Z,8.70
2018-06-30T09:58:10.574Z,7.20
2018-06-30T10:00:44.382Z,8.87
2018-06-30T10:03:12.692Z,5.10
2018-06-30T10:05:40.925Z,5.40
2018-06-30T10:08:09.859Z,6.03
2018-06-30T10:10:38.168Z,5.93
2018-06-30T10:13:06.567Z,4.47
2018-06-30T10:15:35.426Z,4.20
2018-06-30T10:18:03.714Z,5.30
2018-06-30T10:20:32.034Z,6.73
2018-06-30T10:23:00.464Z,11.20
2018-06-30T10:25:28.928Z,5.50
2018-06-30T10:27:57.304Z,7.63
2018-06-30T10:30:25.864Z,6.23
2018-06-30T10:32:54.365Z,5.43
2018-06-30T10:35:22.770Z,6.07
2018-06-30T10:37:51.249Z,5.43
2018-06-30T10:40:19.519Z,6.17
2018-06-30T10:42:47.860Z,10.73
2018-06-30T10:45:16.362Z,7.13
2018-06-30T10:47:44.653Z,5.33
2018-06-30T10:50:13.659Z,5.23
2018-06-30T10:52:42.136Z,6.30
2018-06-30T10:55:10.470Z,7.97
2018-06-30T10:57:39.115Z,4.90
2018-06-30T11:00:07.956Z,5.03
2018-06-30T11:02:36.601Z,4.33
2018-06-30T11:05:05.434Z,5.60
2018-06-30T11:07:33.711Z,6.30
2018-06-30T11:10:01.723Z,5.20
2018-06-30T11:12:30.087Z,6.60
2018-06-30T11:14:58.493Z,5.17
2018-06-30T11:17:26.805Z,5.60
2018-06-30T11:19:55.082Z,4.80
2018-06-30T11:22:23.408Z,5.97
2018-06-30T11:24:51.780Z,5.43
2018-06-30T11:27:20.093Z,16.90
2018-06-30T11:29:48.426Z,7.50
2018-06-30T11:32:16.730Z,3.90
2018-06-30T11:34:45.284Z,4.40
2018-06-30T11:37:13.585Z,6.73
2018-06-30T11:39:42.075Z,4.57
2018-06-30T11:42:10.397Z,6.30
2018-06-30T11:44:38.806Z,8.63
2018-06-30T11:47:07.364Z,5.20
2018-06-30T11:49:35.682Z,6.23
2018-06-30T11:52:04.104Z,5.80
2018-06-30T11:54:32.441Z,5.03
2018-06-30T11:57:00.712Z,7.67
2018-06-30T11:59:29.026Z,5.47
2018-06-30T12:01:57.307Z,4.60
2018-06-30T12:04:25.781Z,5.37
2018-06-30T12:06:54.348Z,7.03
2018-06-30T12:09:22.735Z,6.77
2018-06-30T12:11:51.098Z,5.37
2018-06-30T12:14:19.501Z,6.03
2018-06-30T12:16:47.948Z,6.10
2018-06-30T12:19:16.353Z,4.43
2018-06-30T12:21:44.690Z,4.13
2018-06-30T12:24:13.054Z,4.93
2018-06-30T12:26:41.328Z,4.43
2018-06-30T12:29:09.843Z,6.20
2018-06-30T12:31:38.136Z,6.07
2018-06-30T12:34:06.747Z,5.30
2018-06-30T12:36:35.067Z,4.97
2018-06-30T12:39:03.539Z,4.70
2018-06-30T12:41:32.048Z,5.53
2018-06-30T12:44:00.429Z,4.30
2018-06-30T12:46:29.165Z,3.77
2018-06-30T12:48:57.521Z,5.83
2018-06-30T12:51:25.813Z,6.20
2018-06-30T12:53:54.198Z,3.80
2018-06-30T12:56:22.595Z,5.03
2018-06-30T12:58:50.864Z,4.60
2018-06-30T13:01:19.160Z,4.20
2018-06-30T13:03:47.525Z,6.40
2018-06-30T13:06:15.634Z,4.83
2018-06-30T13:08:43.941Z,4.40
2018-06-30T13:11:12.364Z,6.07
2018-06-30T13:13:40.747Z,7.33
2018-06-30T13:16:09.647Z,3.90
2018-06-30T13:18:38.922Z,4.90
2018-06-30T13:21:07.442Z,4.07
2018-06-30T13:23:35.765Z,8.43
2018-06-30T13:26:04.345Z,4.00
2018-06-30T13:28:33.019Z,4.30
2018-06-30T13:31:01.387Z,8.30
2018-06-30T13:33:30.491Z,5.03
2018-06-30T13:35:58.849Z,5.40
2018-06-30T13:38:27.834Z,5.63
2018-06-30T13:40:56.202Z,4.93
2018-06-30T13:43:24.583Z,3.90
2018-06-30T13:45:52.845Z,4.63
2018-06-30T13:48:21.254Z,4.47
2018-06-30T13:50:49.547Z,4.90
2018-06-30T13:53:17.867Z,7.63
2018-06-30T13:55:46.221Z,5.33
2018-06-30T13:58:14.512Z,6.57
2018-06-30T14:00:42.805Z,4.37
2018-06-30T14:03:11.149Z,5.13
2018-06-30T14:05:40.148Z,4.30
2018-06-30T14:08:08.606Z,4.80
2018-06-30T14:10:36.962Z,5.10
2018-06-30T14:13:05.298Z,4.67
2018-06-30T14:15:33.640Z,6.00
2018-06-30T14:18:02.013Z,5.43
2018-06-30T14:20:30.382Z,5.87
2018-06-30T14:22:58.701Z,5.40
2018-06-30T14:25:27.075Z,4.73
2018-06-30T14:27:55.373Z,5.70
2018-06-30T14:30:23.644Z,5.50
2018-06-30T14:32:52.057Z,5.23
2018-06-30T14:35:20.346Z,7.10
2018-06-30T14:37:48.678Z,4.87
2018-06-30T14:40:16.933Z,6.00
2018-06-30T14:42:45.264Z,7.73
2018-06-30T14:45:13.539Z,6.10
2018-06-30T14:47:41.858Z,5.10
2018-06-30T14:50:10.352Z,6.00
2018-06-30T14:52:38.856Z,4.90
2018-06-30T14:55:07.308Z,5.40
2018-06-30T14:57:35.704Z,4.70
2018-06-30T15:00:04.833Z,5.20
2018-06-30T15:02:33.074Z,5.07
2018-06-30T15:05:01.392Z,6.10
2018-06-30T15:07:29.765Z,5.20
2018-06-30T15:09:57.963Z,6.03
2018-06-30T15:12:26.915Z,5.10
2018-06-30T15:14:55.201Z,5.73
2018-06-30T15:17:23.556Z,5.30
2018-06-30T15:19:51.762Z,7.63
2018-06-30T15:22:20.216Z,5.70
2018-06-30T15:24:48.484Z,4.50
2018-06-30T15:27:17.916Z,6.03
2018-06-30T15:29:46.201Z,5.80
2018-06-30T15:32:15.003Z,5.20
2018-06-30T15:34:43.430Z,5.20
2018-06-30T15:37:11.916Z,4.87
2018-06-30T15:39:40.384Z,8.23
2018-06-30T15:42:08.704Z,5.90
2018-06-30T15:44:37.060Z,4.73
2018-06-30T15:47:05.483Z,6.47
2018-06-30T15:49:33.835Z,5.60
2018-06-30T15:52:02.326Z,9.80
2018-06-30T15:54:30.895Z,7.03
2018-06-30T15:56:59.358Z,5.90
2018-06-30T15:59:27.661Z,5.53
2018-06-30T16:01:56.024Z,5.47
2018-06-30T16:04:24.410Z,6.27
2018-06-30T16:06:52.762Z,6.20
2018-06-30T16:09:21.050Z,5.00
2018-06-30T16:11:49.427Z,4.80
2018-06-30T16:14:17.734Z,5.27
2018-06-30T16:16:46.216Z,6.27
2018-06-30T16:19:14.580Z,5.10
2018-06-30T16:21:42.886Z,8.87
2018-06-30T16:24:11.287Z,4.57
2018-06-30T16:26:39.619Z,4.63
2018-06-30T16:29:07.950Z,4.77
2018-06-30T16:31:36.277Z,4.37
2018-06-30T16:34:04.652Z,4.47
2018-06-30T16:36:32.998Z,4.30
2018-06-30T16:39:01.369Z,3.97
2018-06-30T16:41:30.354Z,3.87
2018-06-30T16:43:58.717Z,4.37
2018-06-30T16:46:27.055Z,5.47
2018-06-30T16:48:55.471Z,4.57
2018-06-30T16:51:23.747Z,5.20
2018-06-30T16:53:52.090Z,5.17
2018-06-30T16:56:20.426Z,3.20
2018-06-30T16:58:49.625Z,3.33
2018-06-30T17:01:17.705Z,4.43
2018-06-30T17:03:46.044Z,3.10
2018-06-30T17:06:14.431Z,4.27
2018-06-30T17:08:42.883Z,5.20
2018-06-30T17:11:11.205Z,4.73
2018-06-30T17:13:39.566Z,8.60
2018-06-30T17:16:07.961Z,3.10
2018-06-30T17:18:36.570Z,3.80
2018-06-30T17:21:04.951Z,3.60
2018-06-30T17:23:33.200Z,3.37
2018-06-30T17:26:01.549Z,4.10
2018-06-30T17:28:30.187Z,4.03
2018-06-30T17:30:58.439Z,2.80
2018-06-30T17:33:26.881Z,3.47
2018-06-30T17:35:54.954Z,3.53
2018-06-30T17:38:23.240Z,2.37
2018-06-30T17:40:51.839Z,4.17
2018-06-30T17:43:19.911Z,5.17
2018-06-30T17:45:48.151Z,2.10
2018-06-30T17:48:16.508Z,2.20
2018-06-30T17:50:45.251Z,2.20
2018-06-30T17:53:13.891Z,5.23
2018-06-30T17:55:42.131Z,4.00
2018-06-30T17:58:10.408Z,1.80
2018-06-30T18:00:38.679Z,2.80
2018-06-30T18:03:07.023Z,2.23
2018-06-30T18:05:35.315Z,1.60
2018-06-30T18:08:03.646Z,3.90
2018-06-30T18:10:32.349Z,2.30
2018-06-30T18:13:00.600Z,3.03
2018-06-30T18:15:28.888Z,2.97
2018-06-30T18:17:57.172Z,3.13
2018-06-30T18:20:25.421Z,2.60
2018-06-30T18:22:54.247Z,1.63
2018-06-30T18:25:22.499Z,1.57
2018-06-30T18:27:50.807Z,2.67
2018-06-30T18:30:19.086Z,2.67
2018-06-30T18:32:47.480Z,3.53
2018-06-30T18:35:15.487Z,2.50
2018-06-30T18:37:44.278Z,2.80
2018-06-30T18:40:12.615Z,4.40
2018-06-30T18:42:40.881Z,2.10
2018-06-30T18:45:09.140Z,1.43
2018-06-30T18:47:37.431Z,2.40
2018-06-30T18:50:05.824Z,2.93
2018-06-30T18:52:34.197Z,1.63
2018-06-30T18:55:02.460Z,1.17
2018-06-30T18:57:30.741Z,0.90
2018-06-30T18:59:59.091Z,0.90
2018-06-30T19:02:27.391Z,1.33
2018-06-30T19:04:55.707Z,1.00
2018-06-30T19:07:24.419Z,2.00
2018-06-30T19:09:52.859Z,2.50
2018-06-30T19:12:21.021Z,3.70
2018-06-30T19:14:49.287Z,1.90
2018-06-30T19:17:17.649Z,1.67
2018-06-30T19:19:45.962Z,1.60
2018-06-30T19:22:14.223Z,2.07
2018-06-30T19:24:42.480Z,1.90
2018-06-30T19:27:10.752Z,0.93
2018-06-30T19:29:39.068Z,2.17
2018-06-30T19:32:07.380Z,1.07
2018-06-30T19:34:35.617Z,2.70
2018-06-30T19:37:03.973Z,2.40
2018-06-30T19:39:33.101Z,0.63
2018-06-30T19:42:01.405Z,3.63
2018-06-30T19:44:29.657Z,4.10
2018-06-30T19:46:57.968Z,2.00
2018-06-30T19:49:26.278Z,2.03
2018-06-30T19:51:54.554Z,0.90
2018-06-30T19:54:22.916Z,3.30
2018-06-30T19:56:51.320Z,0.73
2018-06-30T19:59:19.571Z,0.80
2018-06-30T20:01:47.850Z,1.67
2018-06-30T20:04:16.141Z,1.00
2018-06-30T20:06:45.998Z,2.53
2018-06-30T20:09:14.231Z,3.13
2018-06-30T20:11:42.574Z,2.33
2018-06-30T20:14:10.875Z,1.57
2018-06-30T20:16:38.913Z,1.93
2018-06-30T20:19:07.216Z,3.87
2018-06-30T20:21:35.854Z,1.27
2018-06-30T20:24:04.159Z,3.77
2018-06-30T20:26:32.449Z,7.03
2018-06-30T20:29:00.717Z,1.80
2018-06-30T20:31:29.028Z,1.30
2018-06-30T20:33:57.446Z,1.80
2018-06-30T20:36:25.668Z,1.80
2018-06-30T20:38:53.962Z,3.77
2018-06-30T20:41:22.247Z,4.03
2018-06-30T20:43:50.591Z,1.67
2018-06-30T20:46:18.981Z,2.40
2018-06-30T20:48:47.270Z,0.80
2018-06-30T20:51:15.484Z,2.20
2018-06-30T20:53:43.816Z,3.97
2018-06-30T20:56:12.180Z,1.50
2018-06-30T20:58:41.035Z,1.00
2018-06-30T21:01:10.316Z,2.93
2018-06-30T21:03:38.586Z,2.23
2018-06-30T21:06:06.869Z,0.97
2018-06-30T21:08:35.176Z,2.70
2018-06-30T21:11:03.484Z,1.77
2018-06-30T21:13:31.792Z,1.87
2018-06-30T21:16:00.115Z,0.90
2018-06-30T21:18:28.679Z,0.80
2018-06-30T21:20:58.252Z,1.37
2018-06-30T21:23:26.547Z,1.10
2018-06-30T21:25:55.102Z,0.80
2018-06-30T21:28:23.373Z,1.47
2018-06-30T21:30:51.673Z,2.30
2018-06-30T21:33:20.111Z,1.70
2018-06-30T21:35:48.356Z,0.87
2018-06-30T21:38:16.648Z,1.63
2018-06-30T21:40:44.874Z,1.53
2018-06-30T21:43:13.112Z,0.90
2018-06-30T21:45:41.407Z,1.17
2018-06-30T21:48:09.995Z,1.77
2018-06-30T21:50:40.045Z,0.80
2018-06-30T21:53:08.460Z,3.50
2018-06-30T21:55:36.723Z,2.40
2018-06-30T21:58:05.908Z,1.07
2018-06-30T22:00:49.408Z,2.80
2018-06-30T22:03:20.552Z,3.40
2018-06-30T22:05:48.861Z,1.20
2018-06-30T22:08:17.164Z,1.63
2018-06-30T22:10:45.542Z,1.77
2018-06-30T22:13:13.778Z,4.43
2018-06-30T22:15:42.093Z,3.63
2018-06-30T22:18:10.412Z,1.20
2018-06-30T22:20:38.740Z,2.80
2018-06-30T22:23:07.009Z,3.07
2018-06-30T22:25:35.312Z,3.23
2018-06-30T22:28:05.087Z,1.40
2018-06-30T22:30:33.374Z,3.37
2018-06-30T22:33:02.191Z,1.43
2018-06-30T22:35:30.426Z,1.37
2018-06-30T22:37:58.711Z,1.53
2018-06-30T22:40:27.051Z,1.03
2018-06-30T22:42:55.381Z,2.10
2018-06-30T22:45:23.742Z,8.07
2018-06-30T22:47:52.061Z,1.33
2018-06-30T22:50:20.332Z,2.90
2018-06-30T22:52:48.647Z,1.07
2018-06-30T22:55:16.948Z,1.50
2018-06-30T22:57:45.311Z,0.80
2018-06-30T23:00:16.866Z,1.90
2018-06-30T23:02:45.124Z,2.30
2018-06-30T23:05:13.449Z,1.70
2018-06-30T23:07:41.736Z,1.40
2018-06-30T23:10:11.349Z,3.63
2018-06-30T23:12:39.536Z,1.67
2018-06-30T23:15:08.042Z,1.00
2018-06-30T23:17:36.368Z,0.83
2018-06-30T23:20:05.299Z,1.57
2018-06-30T23:23:06.164Z,2.67
2018-06-30T23:25:34.940Z,0.90
2018-06-30T23:28:03.440Z,2.70
2018-06-30T23:30:32.220Z,1.33
2018-06-30T23:33:00.516Z,7.83
2018-06-30T23:35:29.939Z,1.47
2018-06-30T23:37:59.208Z,2.73
2018-06-30T23:40:27.535Z,5.17
2018-06-30T23:42:55.839Z,2.67
2018-06-30T23:45:24.423Z,2.03
2018-06-30T23:47:53.613Z,2.57
2018-06-30T23:50:23.273Z,1.57
2018-06-30T23:52:51.764Z,0.80
2018-06-30T23:55:20.082Z,3.73
2018-06-30T23:57:48.363Z,1.27
